Time;durP1;ratioP1;P1;durP2;ratioP2;P2;SDS_P1;SDS_P2;PMS_P1;PMS_P2;Temp;Humidity;BMP_temperature;BMP_pressure;BME280_temperature;BME280_humidity;BME280_pressure;Samples;Min_cycle;Max_cycle;Signal;HPM_P1;HPM_P2
2022/06/28 00:00:36;;;;;;;12.05;10.23;;;20.50;99.90;;;;;;5094781;28;20479;-56
2022/06/28 00:03:04;;;;;;;13.43;11.40;;;20.50;99.90;;;;;;5094536;28;20441;-57
2022/06/28 00:05:30;;;;;;;15.27;12.50;;;20.40;99.90;;;;;;5094962;28;20016;-56
2022/06/28 00:07:56;;;;;;;13.48;11.55;;;20.40;99.90;;;;;;5094821;28;20028;-56
2022/06/28 00:10:22;;;;;;;13.60;11.35;;;20.30;99.90;;;;;;5094646;28;20020;-57
2022/06/28 00:12:48;;;;;;;13.95;11.32;;;20.30;99.90;;;;;;5094562;28;20476;-56
2022/06/28 00:18:00;;;;;;;13.38;10.57;;;20.20;99.90;;;;;;5094986;28;20065;-57
2022/06/28 00:20:26;;;;;;;13.57;10.82;;;20.10;99.90;;;;;;5094643;28;20024;-57
2022/06/28 00:22:52;;;;;;;12.88;10.77;;;20.10;99.90;;;;;;5094374;28;20028;-57
2022/06/28 00:25:18;;;;;;;14.23;10.85;;;20.00;99.90;;;;;;5094469;28;20024;-56
2022/06/28 00:27:44;;;;;;;13.75;10.70;;;20.10;99.90;;;;;;5094666;28;20377;-57
2022/06/28 00:30:11;;;;;;;12.88;11.05;;;20.00;99.90;;;;;;5093150;28;20056;-56
2022/06/28 00:32:37;;;;;;;18.40;11.15;;;20.00;99.90;;;;;;5096507;28;20526;-57
2022/06/28 00:35:04;;;;;;;16.52;11.48;;;20.00;99.90;;;;;;5099044;28;20035;-56
2022/06/28 00:37:30;;;;;;;13.98;10.40;;;19.90;99.90;;;;;;5114348;28;20035;-57
2022/06/28 00:39:56;;;;;;;11.30;10.10;;;20.00;99.90;;;;;;5098822;28;20070;-56
2022/06/28 00:42:23;;;;;;;12.57;9.80;;;19.90;99.90;;;;;;5098718;28;20032;-56
2022/06/28 00:44:49;;;;;;;12.98;10.68;;;19.80;99.90;;;;;;5096960;28;20036;-56
2022/06/28 00:47:16;;;;;;;11.35;10.18;;;19.80;99.90;;;;;;5098722;28;20028;-56
2022/06/28 00:49:42;;;;;;;13.88;10.63;;;19.70;99.90;;;;;;5098461;28;20031;-56
2022/06/28 00:52:11;;;;;;;14.23;10.93;;;19.70;99.90;;;;;;5098376;28;20022;-56
2022/06/28 00:54:37;;;;;;;11.10;9.70;;;19.70;99.90;;;;;;5098335;28;20574;-57
2022/06/28 00:57:04;;;;;;;11.60;9.40;;;19.60;99.90;;;;;;5097119;28;20031;-56
2022/06/28 00:59:30;;;;;;;11.35;10.07;;;19.80;99.90;;;;;;5096940;28;20024;-56
2022/06/28 01:02:00;;;;;;;11.38;9.82;;;19.70;99.90;;;;;;5113680;28;20035;-56
2022/06/28 01:04:27;;;;;;;11.85;10.13;;;19.70;99.90;;;;;;5096809;28;20416;-57
2022/06/28 01:06:54;;;;;;;15.10;10.20;;;19.60;99.90;;;;;;5098252;28;20054;-56
2022/06/28 01:09:23;;;;;;;15.13;9.57;;;19.70;99.90;;;;;;5096835;28;20036;-56
2022/06/28 01:11:49;;;;;;;13.32;9.65;;;19.60;99.90;;;;;;5097850;28;20036;-56
2022/06/28 01:14:15;;;;;;;11.52;9.95;;;19.60;99.90;;;;;;5096797;28;20039;-56
2022/06/28 01:16:56;;;;;;;12.90;10.10;;;19.50;99.90;;;;;;5096700;28;20039;-57
2022/06/28 01:19:32;;;;;;;11.68;9.82;;;19.50;99.90;;;;;;5097923;28;20024;-57
2022/06/28 01:22:06;;;;;;;13.13;11.18;;;19.50;99.90;;;;;;5096397;28;20032;-56
2022/06/28 01:24:34;;;;;;;20.85;12.20;;;19.50;99.90;;;;;;5096259;28;20485;-56
2022/06/28 01:27:06;;;;;;;14.18;11.43;;;19.40;99.90;;;;;;5113421;28;20028;-57
2022/06/28 01:29:33;;;;;;;17.00;12.68;;;19.40;99.90;;;;;;5096425;28;20093;-56
2022/06/28 01:32:10;;;;;;;19.98;13.20;;;19.30;99.90;;;;;;5096480;28;20400;-56
2022/06/28 01:34:36;;;;;;;21.60;12.77;;;19.30;99.90;;;;;;5096110;28;20477;-56
2022/06/28 01:37:03;;;;;;;20.65;12.15;;;19.40;99.90;;;;;;5096440;28;20122;-56
2022/06/28 01:39:31;;;;;;;23.33;13.25;;;19.40;99.90;;;;;;5096324;28;20065;-56
2022/06/28 01:41:57;;;;;;;19.30;13.02;;;19.40;99.90;;;;;;5097578;28;20527;-57
2022/06/28 01:44:27;;;;;;;20.40;12.77;;;19.40;99.90;;;;;;5096504;28;20036;-56
2022/06/28 01:47:05;;;;;;;17.52;12.10;;;19.40;99.90;;;;;;5096197;28;20298;-57
2022/06/28 01:49:52;;;;;;;18.17;12.52;;;19.30;99.90;;;;;;5097252;28;20370;-57
2022/06/28 01:52:20;;;;;;;14.88;12.30;;;19.30;99.90;;;;;;5095985;28;20039;-56
2022/06/28 01:54:47;;;;;;;15.23;11.68;;;19.30;99.90;;;;;;5095979;28;20029;-56
2022/06/28 01:57:15;;;;;;;15.05;12.00;;;19.40;99.90;;;;;;5097128;28;20024;-57
2022/06/28 01:59:48;;;;;;;15.45;11.80;;;19.30;99.90;;;;;;5112775;28;20061;-56
2022/06/28 02:02:41;;;;;;;15.82;12.23;;;19.30;99.90;;;;;;5097069;28;20058;-57
2022/06/28 02:05:26;;;;;;;15.63;11.88;;;19.30;99.90;;;;;;5097314;28;20043;-56
2022/06/28 02:07:54;;;;;;;12.30;10.68;;;19.30;99.90;;;;;;5095888;28;20039;-57
2022/06/28 02:10:22;;;;;;;13.82;10.93;;;19.30;99.90;;;;;;5095743;28;20452;-57
2022/06/28 02:12:49;;;;;;;12.43;11.05;;;19.30;99.90;;;;;;5095471;28;20093;-56
2022/06/28 02:15:15;;;;;;;12.90;10.40;;;19.30;99.90;;;;;;5096847;28;20194;-57
2022/06/28 02:17:43;;;;;;;13.18;10.57;;;19.30;99.90;;;;;;5096943;28;20115;-57
2022/06/28 02:20:12;;;;;;;11.27;9.90;;;19.30;99.90;;;;;;5095419;28;20473;-56
2022/06/28 02:22:39;;;;;;;11.88;10.25;;;19.20;99.90;;;;;;5095515;28;20028;-57
2022/06/28 02:25:06;;;;;;;17.08;12.90;;;19.10;99.90;;;;;;5095033;28;20457;-57
2022/06/28 02:27:32;;;;;;;15.90;11.88;;;19.20;99.90;;;;;;5095262;28;20066;-57
2022/06/28 02:29:59;;;;;;;14.82;10.60;;;19.10;99.90;;;;;;5095270;28;20073;-56
2022/06/28 02:32:25;;;;;;;17.10;12.57;;;19.10;99.90;;;;;;5095122;28;20020;-56
2022/06/28 02:40:24;;;;;;;14.45;12.10;;;19.10;99.90;;;;;;5096254;28;20043;-57
2022/06/28 02:42:54;;;;;;;18.52;12.98;;;19.00;99.90;;;;;;5112002;28;20032;-57
2022/06/28 02:45:22;;;;;;;16.55;11.43;;;19.00;99.90;;;;;;5096067;28;20036;-57
2022/06/28 02:47:49;;;;;;;12.10;10.82;;;19.00;99.90;;;;;;5111817;28;20028;-56
2022/06/28 02:50:15;;;;;;;11.82;10.63;;;19.00;99.90;;;;;;5096410;28;20484;-57
2022/06/28 02:52:41;;;;;;;11.18;10.00;;;18.90;99.90;;;;;;5094593;28;20123;-56
2022/06/28 02:55:08;;;;;;;15.43;10.82;;;18.90;99.90;;;;;;5094874;28;20050;-57
2022/06/28 02:57:36;;;;;;;15.70;11.02;;;18.90;99.90;;;;;;5096234;28;20111;-56
2022/06/28 03:00:08;;;;;;;15.43;11.15;;;18.80;99.90;;;;;;5111567;28;20032;-56
2022/06/28 03:02:39;;;;;;;13.73;11.02;;;18.80;99.90;;;;;;5095980;28;20031;-57
2022/06/28 03:05:08;;;;;;;12.35;10.90;;;18.90;99.90;;;;;;5094382;28;20481;-57
2022/06/28 03:07:34;;;;;;;11.73;10.55;;;18.80;99.90;;;;;;5111372;28;20440;-56
2022/06/28 03:10:01;;;;;;;11.75;10.48;;;18.80;99.90;;;;;;5094484;28;20032;-56
2022/06/28 03:12:27;;;;;;;12.57;10.85;;;18.80;99.90;;;;;;5094327;28;20040;-57
2022/06/28 03:14:53;;;;;;;12.73;10.77;;;18.80;99.90;;;;;;5111276;28;20032;-57
2022/06/28 03:17:19;;;;;;;15.27;10.98;;;18.80;99.90;;;;;;5094309;28;20051;-57
2022/06/28 03:19:45;;;;;;;12.32;10.60;;;18.90;99.90;;;;;;5094275;28;20059;-56
2022/06/28 03:22:11;;;;;;;13.52;9.98;;;18.80;99.90;;;;;;5093993;28;20113;-57
2022/06/28 03:24:37;;;;;;;13.15;10.20;;;18.80;99.90;;;;;;5094022;28;20274;-57
2022/06/28 03:27:03;;;;;;;12.98;10.20;;;18.80;99.90;;;;;;5094140;28;20035;-56
2022/06/28 03:29:29;;;;;;;12.68;10.07;;;18.80;99.90;;;;;;5095329;28;20465;-56
2022/06/28 03:31:56;;;;;;;12.10;10.00;;;18.80;99.90;;;;;;5095523;28;20162;-57
2022/06/28 03:34:22;;;;;;;11.07;9.98;;;18.90;99.90;;;;;;5093827;28;20064;-57
2022/06/28 03:36:48;;;;;;;15.60;10.90;;;18.90;99.90;;;;;;5093879;28;20141;-56
2022/06/28 03:39:35;;;;;;;19.52;11.18;;;18.90;99.90;;;;;;5110884;28;20024;-56
2022/06/28 03:42:02;;;;;;;18.10;10.38;;;18.90;99.90;;;;;;5110790;28;20070;-57
2022/06/28 03:44:30;;;;;;;13.27;10.43;;;19.00;99.90;;;;;;5110663;28;20545;-57
2022/06/28 03:46:59;;;;;;;13.18;11.65;;;19.10;99.90;;;;;;5093810;28;20024;-57
2022/06/28 03:49:44;;;;;;;15.50;10.63;;;19.10;99.90;;;;;;5095045;28;20066;-56
2022/06/28 03:52:16;;;;;;;11.48;10.27;;;19.10;99.90;;;;;;5093610;28;20055;-57
2022/06/28 03:55:01;;;;;;;13.02;10.20;;;19.10;99.90;;;;;;5094938;28;20512;-57
2022/06/28 03:57:40;;;;;;;12.18;10.90;;;19.20;99.90;;;;;;5093528;28;20039;-57
2022/06/28 04:00:08;;;;;;;12.27;10.45;;;19.20;99.90;;;;;;5110639;28;20066;-56
2022/06/28 04:02:39;;;;;;;15.02;10.50;;;19.20;99.90;;;;;;5094830;28;20028;-57
2022/06/28 04:05:08;;;;;;;12.07;10.87;;;19.30;99.90;;;;;;5093432;28;20162;-57
2022/06/28 04:07:35;;;;;;;18.77;11.35;;;19.40;99.90;;;;;;5092802;28;20028;-57
2022/06/28 04:10:01;;;;;;;17.08;11.73;;;19.50;99.90;;;;;;5093338;28;20027;-57
2022/06/28 04:12:27;;;;;;;14.75;11.35;;;19.50;99.90;;;;;;5110340;28;20052;-57
2022/06/28 04:15:01;;;;;;;12.48;11.23;;;19.60;99.90;;;;;;5093414;28;20028;-57
2022/06/28 04:17:27;;;;;;;11.85;10.18;;;19.70;99.90;;;;;;5093379;28;20047;-57
2022/06/28 04:20:12;;;;;;;13.30;11.07;;;19.70;99.90;;;;;;5094839;28;20043;-57
2022/06/28 04:22:53;;;;;;;14.88;11.23;;;19.90;99.90;;;;;;5093300;28;20032;-57
2022/06/28 04:25:19;;;;;;;15.93;11.23;;;19.90;99.90;;;;;;5092970;28;20115;-57
2022/06/28 04:27:47;;;;;;;18.55;11.68;;;20.00;99.90;;;;;;5093190;28;20096;-57
2022/06/28 04:30:14;;;;;;;17.63;11.65;;;20.10;99.90;;;;;;5093242;28;20542;-57
2022/06/28 04:32:49;;;;;;;18.23;12.20;;;20.20;99.90;;;;;;5109890;28;20416;-57
2022/06/28 04:35:17;;;;;;;18.10;12.40;;;20.30;99.90;;;;;;5093271;28;20040;-57
2022/06/28 04:37:43;;;;;;;16.75;12.48;;;20.40;99.90;;;;;;5094518;28;20377;-57
2022/06/28 04:40:21;;;;;;;16.27;11.98;;;20.50;99.90;;;;;;5092950;28;20054;-57
2022/06/28 04:43:00;;;;;;;14.05;12.07;;;20.50;99.90;;;;;;5109957;28;20024;-57
2022/06/28 04:45:26;;;;;;;12.73;11.32;;;20.60;99.90;;;;;;5093075;28;20032;-57
2022/06/28 04:48:04;;;;;;;14.55;12.43;;;20.70;99.90;;;;;;5092961;28;20032;-57
2022/06/28 04:50:31;;;;;;;11.65;10.38;;;20.90;99.90;;;;;;5093033;28;20028;-57
2022/06/28 04:52:57;;;;;;;18.42;12.75;;;21.00;99.90;;;;;;5093006;28;20039;-57
2022/06/28 04:55:23;;;;;;;22.98;12.57;;;21.10;99.90;;;;;;5093084;28;20114;-57
2022/06/28 04:57:58;;;;;;;19.08;12.95;;;21.30;99.90;;;;;;5093102;28;20020;-57
2022/06/28 05:00:24;;;;;;;18.67;12.77;;;21.40;99.90;;;;;;5109939;28;20028;-57
2022/06/28 05:02:57;;;;;;;20.80;12.30;;;21.50;99.90;;;;;;5092837;28;20039;-57
2022/06/28 05:05:53;;;;;;;16.52;12.52;;;21.50;99.90;;;;;;5094211;28;20055;-57
2022/06/28 05:08:19;;;;;;;23.42;13.20;;;21.70;99.90;;;;;;5092550;28;20051;-57
2022/06/28 05:10:59;;;;;;;14.67;11.83;;;21.90;99.90;;;;;;5094319;28;20031;-57
2022/06/28 05:13:45;;;;;;;23.13;12.65;;;22.00;99.90;;;;;;5062236;28;20043;-57
2022/06/28 05:16:14;;;;;;;15.23;11.23;;;22.10;99.90;;;;;;5092816;28;20109;-57
2022/06/28 05:18:40;;;;;;;16.67;11.02;;;22.20;99.90;;;;;;5095711;28;20472;-57
2022/06/28 05:21:09;;;;;;;14.30;11.38;;;22.20;99.90;;;;;;5097561;28;20060;-57
2022/06/28 05:23:38;;;;;;;14.32;10.23;;;22.40;99.90;;;;;;5096565;28;20048;-57
2022/06/28 05:26:19;;;;;;;18.50;11.73;;;22.50;99.90;;;;;;5087698;28;20037;-57
2022/06/28 05:29:05;;;;;;;20.15;11.25;;;22.60;99.90;;;;;;5097726;28;20031;-57
2022/06/28 05:31:31;;;;;;;15.98;11.30;;;22.70;99.90;;;;;;5094525;28;20134;-57
2022/06/28 05:33:57;;;;;;;22.23;10.50;;;22.80;99.90;;;;;;5096822;28;20032;-57
2022/06/28 05:36:23;;;;;;;31.65;14.20;;;22.90;99.90;;;;;;5113978;28;20431;-58
2022/06/28 05:38:49;;;;;;;28.70;13.02;;;23.00;99.90;;;;;;5098097;28;20081;-57
2022/06/28 05:41:15;;;;;;;21.88;12.68;;;23.20;99.90;;;;;;5098179;28;20024;-58
2022/06/28 05:43:41;;;;;;;19.77;10.57;;;23.30;99.90;;;;;;5096459;28;20504;-57
2022/06/28 05:46:07;;;;;;;17.42;10.05;;;23.40;99.90;;;;;;5096618;28;20687;-57
2022/06/28 05:48:33;;;;;;;19.35;9.65;;;23.50;99.90;;;;;;5096519;28;20091;-57
2022/06/28 05:50:59;;;;;;;18.27;9.93;;;23.60;99.90;;;;;;5095680;28;20404;-57
2022/06/28 05:53:25;;;;;;;21.70;9.18;;;23.70;99.90;;;;;;5096382;28;20119;-57
2022/06/28 05:55:51;;;;;;;19.58;10.05;;;23.80;99.90;;;;;;5097919;28;20024;-57
2022/06/28 05:58:16;;;;;;;29.55;10.60;;;23.80;99.90;;;;;;5093362;28;20133;-57
2022/06/28 06:00:43;;;;;;;20.98;10.70;;;24.00;99.90;;;;;;5095666;28;20473;-58
2022/06/28 06:03:09;;;;;;;21.77;9.80;;;24.10;99.90;;;;;;5095571;28;20491;-58
2022/06/28 06:05:35;;;;;;;29.73;10.43;;;24.20;99.90;;;;;;5095153;28;20131;-58
2022/06/28 06:08:01;;;;;;;14.50;8.27;;;24.30;99.90;;;;;;5086168;28;20027;-57
2022/06/28 06:10:27;;;;;;;26.85;10.43;;;24.30;99.90;;;;;;5084965;28;20464;-58
2022/06/28 06:12:54;;;;;;;23.25;9.05;;;24.50;99.90;;;;;;5087600;28;20140;-57
2022/06/28 06:15:20;;;;;;;19.90;9.70;;;24.50;99.90;;;;;;5119909;27;20032;-58
2022/06/28 06:17:47;;;;;;;26.00;10.07;;;24.60;99.90;;;;;;5084931;28;20123;-58
2022/06/28 06:20:13;;;;;;;13.35;7.90;;;24.70;99.90;;;;;;5085165;28;20032;-57
2022/06/28 06:22:39;;;;;;;17.67;7.22;;;24.90;99.90;;;;;;5086659;28;20028;-58
2022/06/28 06:25:25;;;;;;;12.65;7.40;;;25.00;99.90;;;;;;5079108;28;20474;-58
2022/06/28 06:27:52;;;;;;;23.58;8.60;;;25.10;99.90;;;;;;5079232;28;20094;-58
2022/06/28 06:30:18;;;;;;;20.60;9.38;;;25.30;99.90;;;;;;5090137;28;20092;-58
2022/06/28 06:32:59;;;;;;;18.80;8.32;;;25.50;99.90;;;;;;5088904;28;20055;-58
2022/06/28 06:35:54;;;;;;;12.77;7.57;;;25.60;99.90;;;;;;5092698;28;20043;-58
2022/06/28 06:38:21;;;;;;;11.43;6.65;;;25.80;99.90;;;;;;5091005;28;20072;-58
2022/06/28 06:40:48;;;;;;;13.90;6.90;;;25.90;99.90;;;;;;5091493;28;20085;-58
2022/06/28 06:43:16;;;;;;;18.20;8.60;;;26.10;99.90;;;;;;5090667;28;20036;-56
2022/06/28 06:45:42;;;;;;;14.13;7.32;;;26.20;99.90;;;;;;5092651;28;20111;-56
2022/06/28 06:48:08;;;;;;;15.30;7.90;;;26.40;99.90;;;;;;5092885;28;20624;-56
2022/06/28 06:50:35;;;;;;;14.68;7.18;;;26.50;99.90;;;;;;5107905;28;20077;-56
2022/06/28 06:53:02;;;;;;;12.07;6.90;;;26.60;99.90;;;;;;5095411;28;20470;-56
2022/06/28 06:55:29;;;;;;;16.63;7.95;;;26.80;99.20;;;;;;5089200;28;20115;-57
2022/06/28 06:57:55;;;;;;;14.07;6.60;;;26.90;99.40;;;;;;5095247;28;20416;-56
2022/06/28 07:00:22;;;;;;;14.25;7.18;;;27.10;99.20;;;;;;5093778;28;20055;-58
2022/06/28 07:02:48;;;;;;;9.73;6.47;;;27.20;98.60;;;;;;5094802;28;20043;-58
2022/06/28 07:05:15;;;;;;;15.70;6.43;;;27.50;99.90;;;;;;5095150;28;20032;-58
2022/06/28 07:07:41;;;;;;;13.35;6.88;;;27.60;99.10;;;;;;5094918;28;20024;-58
2022/06/28 07:10:07;;;;;;;13.30;7.13;;;27.70;96.30;;;;;;5094480;28;20214;-58
2022/06/28 07:12:33;;;;;;;11.13;6.55;;;28.00;97.00;;;;;;5094886;28;20071;-58
2022/06/28 07:14:59;;;;;;;13.00;6.95;;;28.20;96.40;;;;;;5093052;28;20113;-58
2022/06/28 07:17:33;;;;;;;10.02;6.25;;;28.40;94.70;;;;;;5094458;28;20047;-56
2022/06/28 07:19:59;;;;;;;21.23;7.93;;;28.60;93.00;;;;;;5094560;28;20680;-56
2022/06/28 07:22:25;;;;;;;10.85;6.82;;;28.90;91.80;;;;;;5096142;28;20020;-56
2022/06/28 07:24:56;;;;;;;7.15;5.65;;;29.30;91.60;;;;;;5094510;28;20096;-56
2022/06/28 07:27:23;;;;;;;12.07;6.57;;;29.40;82.80;;;;;;5094873;28;20020;-57
2022/06/28 07:29:50;;;;;;;9.57;5.75;;;29.30;80.40;;;;;;5095579;28;20035;-56
2022/06/28 07:32:16;;;;;;;12.32;5.53;;;29.70;80.60;;;;;;5095553;28;20537;-56
2022/06/28 07:34:42;;;;;;;12.32;6.47;;;29.90;80.90;;;;;;5094000;28;20036;-56
2022/06/28 07:37:08;;;;;;;14.43;6.40;;;30.30;86.10;;;;;;5093749;28;20484;-56
2022/06/28 07:39:37;;;;;;;20.10;8.77;;;30.60;82.30;;;;;;5092647;28;20489;-57
2022/06/28 07:42:23;;;;;;;14.48;6.30;;;30.90;73.20;;;;;;5085095;28;20067;-56
2022/06/28 07:44:52;;;;;;;11.90;6.38;;;31.30;70.00;;;;;;5092084;28;20390;-56
2022/06/28 07:47:19;;;;;;;11.40;5.43;;;31.50;71.00;;;;;;5103059;28;20059;-57
2022/06/28 07:52:36;;;;;;;14.95;7.55;;;31.90;65.10;;;;;;5089903;28;20036;-56
2022/06/28 07:55:09;;;;;;;18.42;6.45;;;32.10;63.40;;;;;;5114868;27;20473;-57
2022/06/28 07:58:01;;;;;;;13.05;6.60;;;32.30;65.20;;;;;;5088234;28;20489;-57
2022/06/28 08:00:29;;;;;;;9.85;6.47;;;32.10;63.60;;;;;;5093677;28;20067;-56
2022/06/28 08:03:06;;;;;;;9.95;5.50;;;32.30;61.60;;;;;;5093452;28;20366;-56
2022/06/28 08:05:32;;;;;;;11.40;5.80;;;31.80;60.10;;;;;;5110182;28;20040;-56
2022/06/28 08:07:58;;;;;;;9.40;5.38;;;32.10;65.00;;;;;;5093021;28;20024;-57
2022/06/28 08:10:29;;;;;;;9.55;5.40;;;32.60;62.60;;;;;;5093351;28;20082;-56
2022/06/28 08:12:56;;;;;;;11.05;5.10;;;32.40;61.30;;;;;;5090279;28;20040;-57
2022/06/28 08:15:22;;;;;;;11.93;6.15;;;32.60;61.60;;;;;;5118361;27;20044;-56
2022/06/28 08:17:48;;;;;;;7.63;5.00;;;33.10;61.20;;;;;;5096625;27;20184;-56
2022/06/28 08:20:18;;;;;;;8.98;5.43;;;33.10;57.90;;;;;;5085512;28;20039;-57
2022/06/28 08:23:02;;;;;;;10.45;5.40;;;33.30;60.10;;;;;;5088833;28;20028;-57
2022/06/28 08:25:41;;;;;;;9.18;4.90;;;33.60;59.10;;;;;;5107147;28;20075;-57
2022/06/28 08:28:14;;;;;;;8.65;5.22;;;33.30;58.40;;;;;;5087895;28;20048;-57
2022/06/28 08:30:59;;;;;;;11.35;4.85;;;33.20;59.30;;;;;;5089017;28;20024;-57
2022/06/28 08:33:25;;;;;;;8.02;4.38;;;33.30;56.40;;;;;;5091403;28;20032;-57
2022/06/28 08:35:51;;;;;;;15.90;6.25;;;33.40;55.90;;;;;;5092390;28;20024;-57
2022/06/28 08:38:17;;;;;;;8.68;4.53;;;33.30;57.40;;;;;;5087079;28;20021;-57
2022/06/28 08:40:44;;;;;;;7.10;4.30;;;33.70;57.20;;;;;;5093083;28;20381;-57
2022/06/28 08:43:10;;;;;;;9.73;5.22;;;34.20;57.80;;;;;;5092357;28;20024;-57
2022/06/28 08:45:42;;;;;;;10.15;4.65;;;34.40;56.30;;;;;;5092845;28;20036;-56
2022/06/28 08:48:18;;;;;;;8.93;4.50;;;34.50;54.60;;;;;;5083392;28;20109;-56
2022/06/28 08:50:53;;;;;;;11.43;5.72;;;34.70;56.00;;;;;;5093007;28;20020;-57
2022/06/28 08:53:21;;;;;;;8.95;4.22;;;34.70;54.30;;;;;;5091915;28;20027;-56
2022/06/28 08:56:02;;;;;;;13.93;3.70;;;34.50;48.70;;;;;;5093917;28;20085;-57
2022/06/28 08:58:31;;;;;;;21.33;5.28;;;34.30;45.00;;;;;;5092380;28;20016;-56
2022/06/28 09:00:58;;;;;;;9.43;3.90;;;34.50;50.00;;;;;;5097449;28;20032;-57
2022/06/28 09:03:24;;;;;;;10.82;4.28;;;33.70;47.40;;;;;;5096153;28;20032;-57
2022/06/28 09:06:01;;;;;;;7.30;3.65;;;33.60;48.10;;;;;;5097032;28;20032;-56
2022/06/28 09:08:35;;;;;;;9.93;3.90;;;33.30;48.00;;;;;;5094368;28;20085;-57
2022/06/28 09:11:04;;;;;;;6.95;3.08;;;34.10;44.60;;;;;;5094777;28;20036;-57
2022/06/28 09:13:43;;;;;;;9.98;2.97;;;33.80;40.40;;;;;;5090422;28;20431;-57
2022/06/28 09:16:14;;;;;;;7.95;3.42;;;34.20;40.00;;;;;;5092015;28;20044;-57
2022/06/28 09:18:42;;;;;;;13.23;3.85;;;34.30;40.20;;;;;;5096696;28;20419;-57
2022/06/28 09:21:28;;;;;;;11.52;3.35;;;34.70;39.70;;;;;;5093680;28;20065;-57
2022/06/28 09:24:02;;;;;;;4.28;2.20;;;34.20;39.60;;;;;;5094110;28;20032;-57
2022/06/28 09:26:28;;;;;;;4.13;2.47;;;34.00;39.50;;;;;;5096617;28;20020;-58
2022/06/28 09:28:54;;;;;;;13.98;3.50;;;34.50;40.20;;;;;;5096317;28;20062;-57
2022/06/28 09:31:23;;;;;;;9.80;2.90;;;34.60;38.70;;;;;;5095301;28;20737;-57
2022/06/28 09:34:06;;;;;;;4.03;2.20;;;35.00;40.80;;;;;;5094074;28;20048;-57
2022/06/28 09:36:57;;;;;;;5.75;2.70;;;34.20;38.40;;;;;;5087784;28;20458;-57
2022/06/28 09:39:28;;;;;;;14.20;3.85;;;34.10;39.00;;;;;;5094958;28;20060;-57
2022/06/28 09:41:56;;;;;;;7.22;2.70;;;34.50;39.70;;;;;;5096252;28;20090;-57
2022/06/28 09:44:28;;;;;;;11.93;3.22;;;35.10;40.70;;;;;;5092737;28;20438;-57
2022/06/28 09:46:57;;;;;;;5.20;2.28;;;35.00;37.80;;;;;;5095638;28;20024;-57
2022/06/28 09:49:30;;;;;;;4.97;2.63;;;34.20;37.00;;;;;;5094573;28;20028;-57
2022/06/28 09:52:01;;;;;;;9.25;3.10;;;34.40;37.10;;;;;;5095787;28;20039;-57
2022/06/28 09:54:31;;;;;;;4.85;2.30;;;34.40;36.30;;;;;;5095367;28;20036;-57
2022/06/28 09:56:57;;;;;;;4.13;2.45;;;34.30;38.00;;;;;;5095375;28;20028;-57
2022/06/28 09:59:26;;;;;;;9.27;2.90;;;34.30;37.70;;;;;;5094706;28;20206;-57
2022/06/28 10:01:57;;;;;;;8.30;2.80;;;33.80;40.00;;;;;;5093981;28;20056;-57
2022/06/28 10:04:25;;;;;;;7.45;2.67;;;33.60;37.60;;;;;;5094440;28;20423;-57
2022/06/28 10:06:51;;;;;;;6.28;3.22;;;33.60;38.90;;;;;;5096987;28;20028;-57
2022/06/28 10:09:19;;;;;;;7.97;2.20;;;33.70;40.70;;;;;;5095033;28;20050;-57
2022/06/28 10:17:28;;;;;;;7.88;2.90;;;35.70;38.50;;;;;;5097666;28;20036;-57
2022/06/28 10:19:57;;;;;;;5.35;2.63;;;35.30;37.50;;;;;;5097496;28;20054;-57
2022/06/28 10:22:23;;;;;;;5.22;2.63;;;34.60;39.00;;;;;;5097148;28;20042;-57
2022/06/28 10:25:00;;;;;;;6.85;3.10;;;34.00;39.00;;;;;;5097206;28;20024;-57
2022/06/28 10:27:27;;;;;;;6.72;2.72;;;34.30;41.10;;;;;;5097156;28;20024;-57
2022/06/28 10:30:07;;;;;;;3.63;2.50;;;34.50;40.60;;;;;;5096964;28;20052;-57
2022/06/28 10:33:05;;;;;;;9.70;3.20;;;34.30;38.20;;;;;;5074251;28;20079;-58
2022/06/28 10:35:36;;;;;;;4.68;2.42;;;34.40;38.40;;;;;;5072427;28;20037;-57
2022/06/28 10:38:08;;;;;;;3.78;2.67;;;34.10;38.80;;;;;;5072562;28;20082;-57
2022/06/28 10:40:47;;;;;;;7.80;3.60;;;34.20;38.20;;;;;;5073027;28;20033;-57
2022/06/28 10:43:14;;;;;;;5.80;2.85;;;34.50;39.80;;;;;;5073171;28;20102;-57
2022/06/28 10:46:02;;;;;;;7.72;2.65;;;34.40;38.70;;;;;;5073318;28;20395;-57
2022/06/28 10:48:29;;;;;;;6.53;2.65;;;33.80;37.20;;;;;;5073121;28;20124;-57
2022/06/28 10:51:00;;;;;;;11.40;2.92;;;34.00;37.90;;;;;;5073374;28;20067;-57
2022/06/28 10:54:02;;;;;;;6.75;2.75;;;34.60;38.10;;;;;;5073168;28;20040;-57
2022/06/28 10:56:48;;;;;;;6.53;2.75;;;34.70;39.30;;;;;;5060448;28;20045;-57
2022/06/28 10:59:16;;;;;;;6.97;2.70;;;34.70;37.80;;;;;;5072794;28;20039;-57
2022/06/28 11:01:42;;;;;;;15.38;3.33;;;35.10;36.10;;;;;;5072307;28;20056;-57
2022/06/28 11:04:23;;;;;;;7.70;3.50;;;35.20;35.40;;;;;;5074798;28;20040;-57
2022/06/28 11:07:17;;;;;;;20.92;6.45;;;35.00;37.40;;;;;;5079786;28;20470;-57
2022/06/28 11:09:55;;;;;;;7.60;2.90;;;35.00;38.00;;;;;;5095452;28;20377;-57
2022/06/28 11:12:27;;;;;;;8.15;2.47;;;34.60;36.50;;;;;;5095487;28;20123;-57
2022/06/28 11:15:02;;;;;;;3.60;2.30;;;34.50;37.40;;;;;;5095438;28;20035;-57
2022/06/28 11:17:30;;;;;;;9.60;3.20;;;34.90;38.30;;;;;;5095254;28;20104;-57
2022/06/28 11:20:02;;;;;;;5.10;2.67;;;34.80;37.40;;;;;;5095569;28;20028;-57
2022/06/28 11:22:39;;;;;;;9.75;3.08;;;35.10;36.70;;;;;;5095302;28;20027;-57
2022/06/28 11:25:07;;;;;;;6.25;3.38;;;35.80;37.70;;;;;;5094877;28;20038;-57
2022/06/28 11:27:33;;;;;;;5.25;2.92;;;35.50;36.10;;;;;;5095509;28;20116;-57
2022/06/28 11:29:59;;;;;;;10.20;2.92;;;35.20;36.90;;;;;;5095216;28;20028;-57
2022/06/28 11:32:29;;;;;;;3.85;2.83;;;34.70;38.00;;;;;;5094994;28;20020;-57
2022/06/28 11:35:02;;;;;;;6.10;3.25;;;34.70;36.90;;;;;;5095540;28;20081;-57
2022/06/28 11:37:30;;;;;;;5.63;2.65;;;35.30;38.40;;;;;;5096003;28;20372;-57
2022/06/28 11:40:00;;;;;;;9.18;3.45;;;35.80;39.70;;;;;;5095441;28;20028;-57
2022/06/28 11:42:26;;;;;;;8.48;3.20;;;35.20;37.40;;;;;;5095349;28;20464;-57
2022/06/28 11:44:53;;;;;;;7.53;2.67;;;35.10;36.70;;;;;;5094887;28;20044;-57
2022/06/28 11:47:20;;;;;;;7.53;3.65;;;35.70;38.90;;;;;;5094898;28;20096;-57
2022/06/28 11:49:51;;;;;;;10.10;2.70;;;35.70;37.10;;;;;;5095132;28;20024;-57
2022/06/28 11:52:18;;;;;;;7.10;3.30;;;36.30;36.70;;;;;;5094930;28;20826;-57
2022/06/28 11:54:52;;;;;;;8.95;3.05;;;36.10;35.90;;;;;;5095013;28;20109;-57
2022/06/28 11:57:18;;;;;;;5.70;2.60;;;35.60;37.20;;;;;;5093347;28;20039;-57
2022/06/28 11:59:58;;;;;;;3.85;2.53;;;35.30;38.20;;;;;;5095271;28;20028;-57
2022/06/28 12:02:46;;;;;;;7.88;2.78;;;35.60;37.90;;;;;;5095469;28;20047;-57
2022/06/28 12:05:31;;;;;;;5.57;3.00;;;35.30;37.90;;;;;;5094289;28;20445;-57
2022/06/28 12:07:58;;;;;;;10.55;2.50;;;36.20;38.30;;;;;;5094543;28;20421;-56
2022/06/28 12:10:32;;;;;;;16.80;4.05;;;36.90;38.60;;;;;;5095310;28;20024;-57
2022/06/28 12:13:09;;;;;;;20.83;4.63;;;36.80;36.20;;;;;;5093278;28;20114;-56
2022/06/28 12:15:35;;;;;;;5.57;2.67;;;36.40;35.60;;;;;;5094692;28;20031;-56
2022/06/28 12:18:04;;;;;;;5.00;2.28;;;37.10;38.60;;;;;;5095306;28;20373;-56
2022/06/28 12:20:32;;;;;;;8.60;3.35;;;37.30;37.20;;;;;;5095334;28;20092;-56
2022/06/28 12:23:03;;;;;;;7.30;2.85;;;37.40;37.10;;;;;;5095187;28;20061;-57
2022/06/28 12:25:32;;;;;;;6.97;3.20;;;37.60;37.10;;;;;;5094824;28;20036;-57
2022/06/28 12:27:57;;;;;;;5.15;2.83;;;37.70;34.60;;;;;;5094480;28;20039;-56
2022/06/28 12:30:24;;;;;;;22.40;6.45;;;36.70;34.30;;;;;;5095342;28;20032;-56
2022/06/28 12:32:52;;;;;;;17.83;3.85;;;37.30;35.40;;;;;;5095138;28;20444;-57
2022/06/28 12:35:19;;;;;;;18.75;4.80;;;37.10;37.10;;;;;;5093950;28;20663;-57
2022/06/28 12:37:45;;;;;;;26.15;4.72;;;37.80;35.80;;;;;;5095114;28;20370;-57
2022/06/28 12:40:12;;;;;;;7.15;3.00;;;38.10;36.30;;;;;;5094947;28;20039;-57
2022/06/28 12:42:38;;;;;;;6.43;2.45;;;37.90;35.40;;;;;;5094497;28;20040;-57
2022/06/28 12:45:08;;;;;;;15.07;4.60;;;37.80;35.00;;;;;;5094635;28;20047;-57
2022/06/28 12:47:36;;;;;;;5.75;3.00;;;37.00;34.20;;;;;;5095061;28;20020;-57
2022/06/28 12:50:05;;;;;;;8.43;4.20;;;37.50;35.10;;;;;;5094647;28;20030;-57
2022/06/28 12:52:32;;;;;;;16.57;4.90;;;36.70;36.40;;;;;;5094810;28;20572;-57
2022/06/28 12:54:58;;;;;;;4.35;2.90;;;37.10;36.00;;;;;;5086733;28;20035;-57
2022/06/28 12:57:28;;;;;;;5.47;2.58;;;37.10;34.70;;;;;;5092560;28;20028;-57
2022/06/28 12:59:55;;;;;;;4.55;2.63;;;37.00;35.30;;;;;;5090372;28;20019;-59
2022/06/28 13:02:22;;;;;;;5.78;2.65;;;36.60;35.40;;;;;;5094197;28;20041;-58
2022/06/28 13:04:50;;;;;;;4.68;2.60;;;36.80;36.40;;;;;;5089983;28;20105;-58
2022/06/28 13:07:20;;;;;;;8.23;2.80;;;37.40;39.40;;;;;;5092706;28;20024;-58